Amarillo, TX (79121)

3:39 PM CDT on July 30, 2015 (GMT -0500)
Sleepy Hollow | | Change Station
CLOSE
Current Station
Personal Weather Station
Location: Amarillo, TX
Elevation: 3747 ft
Nearby Weather Stations
Active Advisory: Flash Flood Watch

Elev 3747 ft 35.17 °N, 101.93 °W | Updated 3 seconds ago

Mostly Cloudy
Mostly Cloudy
83.6 °F
Feels Like 87 °F
N
6.0
Wind Variable Wind from ENE
Gusts 14.0 mph

Today
High -- | Low -- °F
--% Chance of Precip.
Yesterday
High -- | Low -- °F
Precip. -- in
6:55 AM 8:52 PM
Waxing Gibbous, 99% visible
Pressure 30.13 in
Visibility 10.0 miles
Clouds Mostly Cloudy 3500 ft
Heat Index 87 °F
Dew Point 68 °F
Humidity 60%
Rainfall 0.00 in
Snow Depth Not available.
UV 3.6 out of 12
Pollen 4.30 out of 12
Air Quality Not available.
Flu Activity Not available.
METAR KAMA 301953Z AUTO 04013KT 10SM BKN035 28/19 A3028 RMK AO2 SLP202 T02780194

More Conditions Fewer Conditions

Pressure 30.13 in
Visibility 10.0 miles
Clouds Mostly Cloudy 3500 ft
Heat Index 87 °F
Dew Point 68 °F
Humidity 60%
Rainfall 0.00 in
Snow Depth Not available.
UV 3.6 out of 12
Pollen 4.30 out of 12
Air Quality Not available.
Flu Activity Not available.
METAR KAMA 301953Z AUTO 04013KT 10SM BKN035 28/19 A3028 RMK AO2 SLP202 T02780194

More Conditions Fewer Conditions

10-Day Weather Forecast

×

Almanac

Astronomy

Jul. 30, 2015 Rise Set
Actual Time
Civil Twilight
Nautical Twilight
Astronomical Twilight
Moon
Length of Visible Light
Length of Day
Tomorrow will be .
, % of the Moon is Illuminated

Today's Extremes

State Highs State Lows

Community

WunderPhotos

Upload Photos

1,842,498 photos uploaded!

WunderBlogs® & News

Nearby

Air Quality

  Air Quality AQ Index Pollutant
Not available.

Snow Depth

Station Depth Elevation

Earthquake Activity

City Distance Mag. Time & Date
Minimum magnitude displayed is 2.5.

Coastal Water Temperatures

Place Temperature

Stations

Nearby Weather Stations

Station Location Temp. Windchill Dew Point Humidity Wind Precip. Elev Updated Type
                   
Flash Flood Watch
Statement as of 1:19 PM CDT on July 30, 2015

... Flash Flood Watch in effect through Friday morning...

The National Weather Service in Amarillo has issued a

* Flash Flood Watch for portions of Oklahoma and Texas...
including the following areas... in Oklahoma... Cimarron. In
Texas... Dallam... Deaf Smith... Hartley... Moore... Oldham...
Potter... Randall and Sherman.

* Through Friday morning

* thunderstorms with heavy rain will be possible across the western
panhandles through Friday morning. The runoff from the heavy rain
may cause areas of flash flooding.

* Flash flooding could impact travel. Fast flowing water can sweep
vehicles from roadways.

Precautionary/preparedness actions...

A Flash Flood Watch means that conditions may develop that lead
to flash flooding. Flash flooding is a very dangerous situation.

You should monitor later forecasts and be prepared to take action
should flash flood warnings be issued.